Time;durP1;ratioP1;P1;durP2;ratioP2;P2;SDS_P1;SDS_P2;PMS_P1;PMS_P2;Temp;Humidity;BMP_temperature;BMP_pressure;BME280_temperature;BME280_humidity;BME280_pressure;Samples;Min_cycle;Max_cycle;Signal;HPM_P1;HPM_P2
2022/08/15 00:02:26;;;;;;;7.60;5.10;;;;;;;21.96;64.99;97866.53;4485657;31;20088;-68
2022/08/15 00:05:19;;;;;;;9.15;5.10;;;;;;;21.95;64.96;97863.06;4485831;31;20084;-68
2022/08/15 00:07:47;;;;;;;;;;;;;;;21.96;65.14;97870.00;4486192;31;20160;-68
2022/08/15 00:10:18;;;;;;;8.77;6.00;;;;;;;22.06;64.78;97865.91;4485761;31;19984;-68
2022/08/15 00:13:19;;;;;;;8.77;5.57;;;;;;;22.03;64.84;97875.22;4485895;31;20600;-68
2022/08/15 00:15:51;;;;;;;7.50;5.93;;;;;;;22.02;65.13;97875.44;4485657;32;20483;-68
2022/08/15 00:18:19;;;;;;;12.73;6.03;;;;;;;22.06;65.18;97872.09;4485602;31;20100;-68
2022/08/15 00:20:48;;;;;;;9.50;6.03;;;;;;;22.01;65.51;97876.47;4485652;31;20119;-68
2022/08/15 00:23:22;;;;;;;9.32;6.47;;;;;;;21.95;65.81;97878.22;4485585;32;20601;-68
2022/08/15 00:25:53;;;;;;;9.50;6.05;;;;;;;21.90;66.08;97878.91;4485705;31;20076;-68
2022/08/15 00:28:26;;;;;;;9.98;6.60;;;;;;;21.76;66.67;97878.34;4485642;32;20092;-68
2022/08/15 00:31:08;;;;;;;7.82;6.00;;;;;;;21.70;67.05;97871.28;4485611;31;20079;-68
2022/08/15 00:33:39;;;;;;;10.85;5.65;;;;;;;21.77;66.96;97876.47;4485782;32;20119;-68
2022/08/15 00:36:10;;;;;;;8.30;6.00;;;;;;;21.79;67.02;97875.22;4485447;31;20484;-68
2022/08/15 00:38:58;;;;;;;9.30;6.37;;;;;;;21.85;66.84;97864.66;4469613;32;20153;-68
2022/08/15 00:41:39;;;;;;;9.25;5.93;;;;;;;21.92;66.65;97863.50;4469774;32;20131;-68
2022/08/15 00:44:13;;;;;;;8.63;5.57;;;;;;;22.00;66.33;97862.34;4469827;32;20108;-68
2022/08/15 00:46:44;;;;;;;8.00;5.70;;;;;;;22.01;66.38;97860.47;4469814;32;20103;-68
2022/08/15 00:49:12;;;;;;;7.65;5.60;;;;;;;22.04;66.36;97868.00;4469830;32;20172;-68
2022/08/15 00:51:57;;;;;;;8.90;5.68;;;;;;;22.02;66.45;97868.25;4469966;32;20504;-68
2022/08/15 00:54:32;;;;;;;8.50;6.10;;;;;;;21.96;66.77;97867.31;4470133;32;20080;-68
2022/08/15 00:57:23;;;;;;;7.82;5.80;;;;;;;22.00;66.64;97869.53;4468654;32;20126;-68
2022/08/15 01:00:16;;;;;;;8.38;6.22;;;;;;;21.95;66.81;97871.06;4469639;32;20089;-68
2022/08/15 01:03:02;;;;;;;11.93;5.97;;;;;;;21.98;66.77;97867.09;4469759;32;20454;-68
2022/08/15 01:05:30;;;;;;;9.07;6.03;;;;;;;22.01;66.59;97861.28;4472019;32;20096;-69
2022/08/15 01:07:57;;;;;;;9.95;5.90;;;;;;;22.07;66.44;97867.53;4485322;31;20533;-68
2022/08/15 01:10:24;;;;;;;10.35;6.35;;;;;;;22.07;66.37;97867.53;4485251;31;20092;-68
2022/08/15 01:12:54;;;;;;;9.77;7.32;;;;;;;22.05;66.37;97870.44;4485672;31;20523;-68
2022/08/15 01:15:22;;;;;;;8.60;6.00;;;;;;;22.03;66.54;97874.37;4484047;32;20157;-68
2022/08/15 01:18:02;;;;;;;7.37;5.47;;;;;;;22.05;66.28;97874.97;4485414;31;20108;-68
2022/08/15 01:20:52;;;;;;;8.10;6.00;;;;;;;22.08;65.99;97877.19;4484345;32;20451;-68
2022/08/15 01:23:36;;;;;;;8.50;5.55;;;;;;;22.06;65.87;97874.75;4483978;32;20156;-68
2022/08/15 01:26:21;;;;;;;7.25;5.87;;;;;;;22.05;65.80;97874.97;4485576;31;20137;-68
2022/08/15 01:29:10;;;;;;;8.20;5.82;;;;;;;21.97;65.93;97876.94;4485280;31;20080;-68
2022/08/15 01:31:44;;;;;;;;;;;;;;;21.91;65.94;97885.09;4485818;31;20119;-68
2022/08/15 01:34:16;;;;;;;8.05;5.75;;;;;;;21.83;66.10;97886.22;4485727;31;20000;-68
2022/08/15 01:36:47;;;;;;;9.88;5.55;;;;;;;21.79;66.15;97888.53;4484897;31;20084;-68
2022/08/15 01:39:39;;;;;;;7.90;5.80;;;;;;;21.64;66.92;97882.84;4483612;32;20155;-68
2022/08/15 01:42:14;;;;;;;9.50;5.90;;;;;;;21.53;67.34;97881.81;4483965;32;20100;-68
2022/08/15 01:44:53;;;;;;;9.25;6.35;;;;;;;21.48;67.34;97886.16;4484269;32;20096;-68
2022/08/15 01:47:29;;;;;;;7.95;5.37;;;;;;;21.40;67.62;97882.78;4484076;32;20080;-68
2022/08/15 01:50:08;;;;;;;7.72;5.40;;;;;;;21.44;67.47;97888.50;4485082;31;20126;-68
2022/08/15 01:52:44;;;;;;;7.40;5.37;;;;;;;21.45;67.35;97888.25;4485139;31;20080;-68
2022/08/15 01:55:51;;;;;;;8.43;6.00;;;;;;;21.34;67.79;97885.56;4485238;31;20093;-68
2022/08/15 01:58:23;;;;;;;8.13;5.85;;;;;;;21.21;68.33;97882.06;4485220;31;20444;-68
2022/08/15 02:00:56;;;;;;;9.07;5.85;;;;;;;21.11;68.85;97887.13;4485281;31;20091;-68
2022/08/15 02:03:33;;;;;;;8.07;6.07;;;;;;;21.04;69.20;97889.06;4485134;31;20088;-68
2022/08/15 02:06:22;;;;;;;7.20;5.75;;;;;;;20.98;69.70;97882.78;4476138;32;20541;-68
2022/08/15 02:09:08;;;;;;;7.87;5.50;;;;;;;20.86;69.69;97887.25;4469265;32;20085;-68
2022/08/15 02:11:59;;;;;;;7.47;5.43;;;;;;;20.76;69.68;97885.16;4468554;32;20162;-68
2022/08/15 02:14:33;;;;;;;9.75;5.80;;;;;;;20.68;69.84;97883.59;4469332;32;20518;-68
2022/08/15 02:17:11;;;;;;;9.25;6.32;;;;;;;20.59;70.58;97882.25;4469137;32;20085;-68
2022/08/15 02:19:42;;;;;;;8.43;5.85;;;;;;;20.60;71.19;97883.88;4469133;32;20445;-68
2022/08/15 02:22:13;;;;;;;10.23;5.60;;;;;;;20.70;71.64;97894.03;4469024;32;20172;-68
2022/08/15 02:24:59;;;;;;;8.93;5.37;;;;;;;20.80;69.91;97891.63;4469179;32;20154;-68
2022/08/15 02:27:31;;;;;;;7.82;5.80;;;;;;;20.96;68.87;97892.06;4468892;32;20164;-68
2022/08/15 02:30:11;;;;;;;7.40;5.57;;;;;;;20.87;68.90;97897.69;4468852;32;20110;-68
2022/08/15 02:32:43;;;;;;;6.87;5.15;;;;;;;20.70;69.59;97888.72;4469223;32;20085;-68
2022/08/15 02:35:14;;;;;;;8.85;5.45;;;;;;;20.68;69.74;97891.59;4469159;32;20524;-68
2022/08/15 02:37:45;;;;;;;7.97;5.70;;;;;;;20.62;70.01;97889.78;4478287;32;20148;-68
2022/08/15 02:40:26;;;;;;;9.75;5.28;;;;;;;20.62;69.72;97892.47;4484421;32;20084;-68
2022/08/15 02:43:15;;;;;;;7.85;5.28;;;;;;;20.59;69.79;97892.91;4484567;31;20845;-68
2022/08/15 02:45:47;;;;;;;9.77;6.22;;;;;;;20.56;69.98;97898.69;4484697;31;20168;-68
2022/08/15 02:48:36;;;;;;;7.12;5.65;;;;;;;20.57;70.14;97889.63;4484237;31;20131;-68
2022/08/15 02:51:09;;;;;;;8.85;5.68;;;;;;;20.60;69.87;97881.22;4484508;31;20092;-68
2022/08/15 02:53:44;;;;;;;7.28;5.53;;;;;;;20.55;70.20;97881.06;4484503;31;20160;-68
2022/08/15 02:56:16;;;;;;;7.78;5.55;;;;;;;20.51;70.34;97877.22;4483275;32;20092;-68
2022/08/15 02:58:44;;;;;;;8.02;5.80;;;;;;;20.39;71.11;97883.31;4484566;31;20443;-68
2022/08/15 03:01:12;;;;;;;8.73;5.60;;;;;;;20.24;72.42;97880.19;4484338;31;20115;-68
2022/08/15 03:03:46;;;;;;;10.70;6.40;;;;;;;20.21;72.26;97873.47;4484483;31;20441;-68
2022/08/15 03:06:18;;;;;;;9.27;5.80;;;;;;;20.08;73.16;97873.63;4484191;31;20145;-68
2022/08/15 03:09:03;;;;;;;9.85;6.12;;;;;;;19.95;73.42;97865.78;4484220;31;20576;-68
2022/08/15 03:11:38;;;;;;;8.10;5.65;;;;;;;19.83;73.85;97878.97;4484388;31;20092;-68
2022/08/15 03:14:25;;;;;;;9.30;6.35;;;;;;;19.73;74.15;97878.59;4484286;31;20469;-68
2022/08/15 03:17:02;;;;;;;8.23;5.53;;;;;;;19.74;74.09;97883.72;4484302;31;20131;-68
2022/08/15 03:19:36;;;;;;;;;;;;;;;19.73;74.24;97871.47;4484576;31;20092;-68
2022/08/15 03:22:07;;;;;;;9.52;6.50;;;;;;;19.64;73.88;97872.78;4484177;31;20019;-68
2022/08/15 03:24:36;;;;;;;8.88;6.00;;;;;;;19.52;74.16;97880.63;4485641;31;20145;-68
2022/08/15 03:27:03;;;;;;;9.40;6.35;;;;;;;19.33;74.72;97880.59;4486027;32;20156;-68
2022/08/15 03:29:30;;;;;;;9.98;6.05;;;;;;;19.22;75.47;97881.25;4485988;31;20148;-68
2022/08/15 03:32:10;;;;;;;7.90;5.37;;;;;;;19.24;75.51;97876.56;4486312;31;20152;-68
2022/08/15 03:34:57;;;;;;;8.20;6.07;;;;;;;19.21;76.32;97884.13;4486035;31;20072;-68
2022/08/15 03:37:25;;;;;;;7.10;5.40;;;;;;;19.14;78.09;97881.53;4485668;31;20097;-68
2022/08/15 03:39:53;;;;;;;9.18;6.00;;;;;;;19.11;77.48;97881.97;4485977;31;20118;-70
2022/08/15 03:42:21;;;;;;;8.18;6.15;;;;;;;19.10;77.29;97882.97;4485959;31;20107;-71
2022/08/15 03:44:48;;;;;;;8.27;5.78;;;;;;;19.16;76.89;97892.75;4486214;31;20085;-71
2022/08/15 03:47:17;;;;;;;8.43;5.97;;;;;;;19.15;77.12;97891.94;4486056;31;20123;-71
2022/08/15 03:49:44;;;;;;;8.70;6.05;;;;;;;19.22;76.93;97899.03;4486165;31;20558;-71
2022/08/15 03:52:33;;;;;;;9.18;5.75;;;;;;;19.28;76.35;97903.50;4486248;31;20092;-71
2022/08/15 03:55:07;;;;;;;13.90;6.03;;;;;;;19.28;76.27;97898.19;4485896;31;20100;-71
2022/08/15 03:57:44;;;;;;;10.43;6.75;;;;;;;19.31;75.97;97893.25;4486085;31;20655;-71
2022/08/15 04:00:36;;;;;;;13.48;6.03;;;;;;;19.34;76.08;97894.66;4485962;31;20432;-71
2022/08/15 04:03:15;;;;;;;15.70;5.95;;;;;;;19.42;75.83;97899.69;4486058;31;20088;-70
2022/08/15 04:05:49;;;;;;;14.20;5.82;;;;;;;19.50;76.14;97901.31;4485555;32;20157;-71
2022/08/15 04:08:20;;;;;;;14.98;6.25;;;;;;;19.53;75.88;97895.56;4485896;31;20167;-71
2022/08/15 04:11:07;;;;;;;8.95;6.03;;;;;;;19.56;76.02;97903.09;4485653;31;20419;-71
2022/08/15 04:13:39;;;;;;;11.85;5.68;;;;;;;19.62;75.77;97904.87;4485799;31;20096;-71
2022/08/15 04:16:13;;;;;;;11.98;6.25;;;;;;;19.73;75.64;97899.88;4485738;31;20144;-71
2022/08/15 04:19:00;;;;;;;11.88;6.18;;;;;;;19.80;75.20;97904.16;4485958;31;20148;-71
2022/08/15 04:21:28;;;;;;;15.35;6.75;;;;;;;19.92;74.54;97898.09;4484009;32;20431;-72
2022/08/15 04:23:55;;;;;;;19.40;6.55;;;;;;;20.18;73.46;97897.84;4485573;31;20088;-71
2022/08/15 04:26:23;;;;;;;14.27;6.05;;;;;;;20.30;72.75;97895.28;4485441;31;20145;-71
2022/08/15 04:28:55;;;;;;;8.43;5.78;;;;;;;20.47;72.06;97899.97;4485716;31;20140;-71
2022/08/15 04:31:25;;;;;;;10.35;5.95;;;;;;;20.62;71.58;97897.78;4485718;31;20122;-71
2022/08/15 04:34:00;;;;;;;9.93;6.15;;;;;;;20.79;71.08;97911.31;4485920;31;20088;-71
2022/08/15 04:36:48;;;;;;;15.65;8.40;;;;;;;20.91;70.36;97900.72;4484716;31;20104;-71
2022/08/15 04:39:16;;;;;;;12.90;6.40;;;;;;;21.16;69.91;97905.09;4485524;31;20138;-71
2022/08/15 04:41:46;;;;;;;15.85;6.78;;;;;;;21.34;68.77;97914.88;4485388;32;20107;-72
2022/08/15 04:44:17;;;;;;;17.52;6.55;;;;;;;21.42;68.80;97907.38;4485668;31;20108;-71
2022/08/15 04:46:45;;;;;;;10.80;6.10;;;;;;;21.59;68.24;97912.03;4485819;31;20104;-71
2022/08/15 04:49:13;;;;;;;20.40;6.90;;;;;;;21.79;67.57;97919.75;4485680;31;20104;-71
2022/08/15 04:51:44;;;;;;;16.35;6.53;;;;;;;21.91;66.95;97914.41;4485695;31;20200;-71
2022/08/15 04:54:12;;;;;;;15.70;6.47;;;;;;;21.86;67.14;97911.63;4485739;31;20084;-71
2022/08/15 04:57:03;;;;;;;10.68;6.00;;;;;;;21.92;66.54;97911.50;4485347;32;20502;-71
2022/08/15 04:59:31;;;;;;;11.75;7.15;;;;;;;22.05;66.25;97925.66;4485694;31;20624;-71
2022/08/15 05:02:05;;;;;;;35.70;7.32;;;;;;;22.09;65.97;97914.28;4485540;32;20080;-69
2022/08/15 05:04:53;;;;;;;12.13;6.07;;;;;;;22.18;65.89;97906.75;4476527;32;20097;-69
2022/08/15 05:07:21;;;;;;;10.15;5.53;;;;;;;22.25;65.22;97909.28;4481335;31;20145;-69
2022/08/15 05:09:59;;;;;;;8.98;6.32;;;;;;;22.42;64.80;97910.22;4474946;31;20100;-69
2022/08/15 05:12:38;;;;;;;12.65;5.53;;;;;;;22.83;63.07;97910.22;4482869;32;20460;-69
2022/08/15 05:15:10;;;;;;;14.48;7.00;;;;;;;23.25;61.37;97914.50;4479377;31;20378;-69
2022/08/15 05:17:38;;;;;;;9.65;5.45;;;;;;;23.48;59.77;97908.19;4484836;31;20088;-69
2022/08/15 05:20:24;;;;;;;9.93;5.68;;;;;;;23.83;59.55;97907.97;4475203;31;20096;-69
2022/08/15 05:22:52;;;;;;;12.02;5.90;;;;;;;24.36;58.37;97913.84;4485189;31;20104;-69
2022/08/15 05:25:21;;;;;;;9.57;4.87;;;;;;;24.55;56.82;97902.81;4481070;31;20084;-69
2022/08/15 05:27:52;;;;;;;7.75;5.35;;;;;;;24.86;56.42;97906.69;4485113;31;20551;-69
2022/08/15 05:30:22;;;;;;;12.37;5.78;;;;;;;25.22;55.30;97893.62;4484227;31;20525;-69
2022/08/15 05:33:14;;;;;;;11.25;5.05;;;;;;;25.26;54.54;97891.28;4485318;32;20088;-69
2022/08/15 05:35:46;;;;;;;11.30;5.85;;;;;;;25.63;53.78;97896.72;4483747;32;20537;-69
2022/08/15 05:38:26;;;;;;;8.60;5.30;;;;;;;25.71;54.13;97894.59;4482506;31;20088;-69
2022/08/15 05:41:43;;;;;;;10.43;6.07;;;;;;;25.98;52.69;97898.06;4484060;31;20161;-69
2022/08/15 05:44:40;;;;;;;14.85;5.60;;;;;;;26.13;52.47;97902.72;4428516;32;20128;-69
2022/08/15 05:47:17;;;;;;;13.93;6.03;;;;;;;26.15;52.40;97899.78;4407344;32;20119;-69
2022/08/15 05:49:52;;;;;;;13.80;5.85;;;;;;;25.95;52.98;97898.53;4434694;32;20147;-69
2022/08/15 05:53:02;;;;;;;16.35;6.07;;;;;;;26.17;51.97;97897.63;4430266;32;20620;-69
2022/08/15 05:55:39;;;;;;;9.45;5.85;;;;;;;26.61;50.77;97894.59;4405624;32;20716;-69
2022/08/15 05:58:28;;;;;;;10.52;6.03;;;;;;;26.65;50.81;97894.91;4402365;32;20121;-69
2022/08/15 06:01:19;;;;;;;15.48;5.57;;;;;;;26.97;49.61;97904.69;4397648;32;20198;-69
2022/08/15 06:03:55;;;;;;;11.48;6.18;;;;;;;27.34;49.39;97906.38;4392521;32;20617;-69
2022/08/15 06:06:26;;;;;;;18.85;5.85;;;;;;;27.70;48.60;97914.47;4401780;32;20098;-69
2022/08/15 06:09:06;;;;;;;11.35;6.60;;;;;;;27.61;48.61;97915.00;4388960;32;20419;-69
2022/08/15 06:11:40;;;;;;;9.88;5.87;;;;;;;27.83;47.36;97905.84;4404552;32;20636;-69
2022/08/15 06:14:27;;;;;;;13.18;6.15;;;;;;;27.94;47.41;97901.25;4392783;32;20744;-69
2022/08/15 06:17:12;;;;;;;10.80;6.57;;;;;;;28.35;46.98;97903.06;4404501;32;20098;-69
2022/08/15 06:19:43;;;;;;;14.52;6.22;;;;;;;28.25;46.71;97911.97;4414163;32;20109;-69
2022/08/15 06:22:39;;;;;;;10.98;5.68;;;;;;;28.28;46.25;97919.50;4436119;32;20123;-69
2022/08/15 06:25:21;;;;;;;9.90;5.90;;;;;;;28.05;47.11;97916.31;4401189;32;20110;-69
2022/08/15 06:28:08;;;;;;;6.93;5.82;;;;;;;28.02;47.03;97916.88;4402964;32;20131;-69
2022/08/15 06:31:16;;;;;;;9.73;5.68;;;;;;;27.82;47.87;97911.50;4396519;32;20531;-69
2022/08/15 06:34:00;;;;;;;12.00;6.03;;;;;;;27.93;47.49;97913.91;4417297;32;20218;-69
2022/08/15 06:36:47;;;;;;;12.48;6.30;;;;;;;27.66;47.96;97919.59;4418248;32;20114;-69
2022/08/15 06:39:47;;;;;;;10.77;5.97;;;;;;;28.02;46.84;97914.19;4418860;32;20121;-69
2022/08/15 06:42:39;;;;;;;10.52;6.12;;;;;;;28.05;46.85;97921.72;4418320;32;20576;-69
2022/08/15 06:45:25;;;;;;;8.73;6.03;;;;;;;27.71;47.69;97924.16;4407815;32;20125;-69
2022/08/15 06:48:03;;;;;;;8.95;6.07;;;;;;;27.29;48.81;97923.28;4419997;32;20182;-69
2022/08/15 06:50:54;;;;;;;8.70;6.00;;;;;;;27.40;49.48;97922.28;4408526;32;20781;-69
2022/08/15 06:53:27;;;;;;;11.43;5.87;;;;;;;27.92;47.86;97919.53;4404447;32;20097;-69
2022/08/15 06:56:03;;;;;;;8.48;5.78;;;;;;;28.08;46.83;97914.97;4419177;32;20775;-69
2022/08/15 06:58:40;;;;;;;10.38;6.00;;;;;;;28.12;47.46;97914.16;4410779;32;20110;-69
2022/08/15 07:01:36;;;;;;;9.10;5.93;;;;;;;28.32;47.07;97921.38;4447466;32;20108;-69
2022/08/15 07:04:52;;;;;;;11.07;5.90;;;;;;;28.60;46.32;97919.16;4485363;32;20100;-69
2022/08/15 07:07:31;;;;;;;10.88;6.12;;;;;;;28.73;46.03;97906.97;4484544;32;20544;-69
2022/08/15 07:10:15;;;;;;;13.45;6.35;;;;;;;28.98;44.85;97902.56;4483509;32;20092;-69
2022/08/15 07:13:10;;;;;;;13.00;6.68;;;;;;;28.89;45.18;97909.59;4481036;32;20135;-69
2022/08/15 07:15:55;;;;;;;9.30;6.43;;;;;;;29.00;44.78;97911.16;4477803;31;20156;-69
2022/08/15 07:18:34;;;;;;;9.68;6.05;;;;;;;29.19;44.67;97914.81;4477254;32;20160;-69
2022/08/15 07:21:05;;;;;;;12.40;6.12;;;;;;;29.07;45.25;97916.22;4476355;32;20186;-69
2022/08/15 07:24:01;;;;;;;9.43;5.85;;;;;;;29.36;44.76;97914.44;4480971;32;20644;-69
2022/08/15 07:27:05;;;;;;;12.15;7.07;;;;;;;28.94;45.40;97915.75;4481030;32;20118;-69
2022/08/15 07:29:37;;;;;;;8.35;6.00;;;;;;;28.62;45.99;97921.59;4483711;31;20088;-69
2022/08/15 07:32:09;;;;;;;11.35;6.53;;;;;;;28.60;46.42;97927.25;4479220;31;20151;-70
2022/08/15 07:35:03;;;;;;;12.77;7.60;;;;;;;28.76;46.43;97925.28;4484957;32;20084;-69
2022/08/15 07:37:41;;;;;;;10.90;7.50;;;;;;;28.37;47.18;97920.56;4477914;31;20092;-69
2022/08/15 07:40:32;;;;;;;15.15;7.12;;;;;;;28.49;47.05;97926.47;4480651;32;20096;-69
2022/08/15 07:43:28;;;;;;;13.73;7.12;;;;;;;28.37;47.74;97920.56;4476266;31;20108;-69
2022/08/15 07:46:07;;;;;;;12.90;6.28;;;;;;;28.80;46.38;97923.66;4481633;32;20096;-69
2022/08/15 07:49:07;;;;;;;11.27;6.78;;;;;;;29.09;45.82;97928.34;4483619;31;20130;-69
2022/08/15 07:51:44;;;;;;;12.70;7.10;;;;;;;29.14;44.38;97920.22;4483890;32;20076;-69
2022/08/15 07:54:46;;;;;;;11.93;7.30;;;;;;;28.85;45.33;97917.44;4479368;32;20478;-69
2022/08/15 07:57:30;;;;;;;11.10;7.12;;;;;;;28.49;46.13;97928.34;4423180;32;20167;-69
2022/08/15 08:00:27;;;;;;;14.32;6.30;;;;;;;28.86;44.93;97924.44;4433100;32;20472;-69
2022/08/15 08:03:27;;;;;;;14.55;6.95;;;;;;;28.91;44.57;97931.69;4406096;32;20144;-69
2022/08/15 08:06:11;;;;;;;15.80;6.00;;;;;;;29.02;46.04;97928.69;4418078;32;20113;-69
2022/08/15 08:09:16;;;;;;;8.90;5.80;;;;;;;29.22;45.43;97923.44;4421162;32;20120;-69
2022/08/15 08:11:54;;;;;;;13.62;5.85;;;;;;;29.26;43.05;97924.50;4420523;32;20109;-69
2022/08/15 08:14:30;;;;;;;8.15;6.18;;;;;;;29.12;43.44;97930.50;4436296;32;20116;-69
2022/08/15 08:17:15;;;;;;;9.48;6.10;;;;;;;29.17;43.23;97930.44;4422452;32;20849;-70
2022/08/15 08:20:23;;;;;;;9.68;6.15;;;;;;;29.51;42.42;97921.63;4418948;32;20423;-69
2022/08/15 08:22:56;;;;;;;11.50;6.78;;;;;;;29.65;42.36;97932.56;4390425;32;20439;-69
2022/08/15 08:25:31;;;;;;;13.23;5.87;;;;;;;29.95;42.31;97930.72;4377485;32;20140;-69
2022/08/15 08:28:37;;;;;;;8.27;6.18;;;;;;;29.63;41.75;97925.84;4372671;32;20125;-69
2022/08/15 08:31:11;;;;;;;9.05;5.97;;;;;;;29.84;41.60;97924.62;4372290;32;20136;-69
2022/08/15 08:33:48;;;;;;;8.45;6.32;;;;;;;29.74;41.26;97927.37;4386140;32;20130;-69
2022/08/15 08:36:53;;;;;;;11.40;5.93;;;;;;;29.72;41.90;97935.75;4397597;32;20120;-69
2022/08/15 08:39:30;;;;;;;12.30;6.18;;;;;;;29.68;42.48;97928.50;4399921;32;20115;-69
2022/08/15 08:42:22;;;;;;;8.50;6.35;;;;;;;29.88;39.79;97928.34;4399272;32;20633;-70
2022/08/15 08:45:13;;;;;;;10.27;6.12;;;;;;;30.03;40.31;97934.72;4397073;32;20572;-69
2022/08/15 08:48:17;;;;;;;8.73;5.78;;;;;;;30.03;40.87;97938.22;4382540;32;20530;-69
2022/08/15 08:51:02;;;;;;;11.43;5.40;;;;;;;29.97;40.46;97935.84;4393713;32;20098;-69
2022/08/15 08:53:42;;;;;;;12.68;6.15;;;;;;;30.05;40.24;97927.13;4396728;32;20596;-69
2022/08/15 08:56:19;;;;;;;8.05;5.50;;;;;;;30.00;40.43;97933.38;4403180;32;20109;-69
2022/08/15 08:59:08;;;;;;;7.43;5.55;;;;;;;30.41;38.69;97934.87;4419221;32;20624;-70
2022/08/15 09:01:38;;;;;;;8.27;5.70;;;;;;;30.82;38.49;97934.38;4477922;32;20101;-69
2022/08/15 09:04:10;;;;;;;9.25;5.12;;;;;;;30.90;38.16;97924.81;4480469;32;20181;-69
2022/08/15 09:06:39;;;;;;;;;;;;;;;30.71;38.86;97927.50;4474138;32;20114;-69
2022/08/15 09:09:25;;;;;;;7.80;5.55;;;;;;;30.94;36.90;97918.53;4467926;32;19976;-69
2022/08/15 09:12:02;;;;;;;8.77;5.60;;;;;;;31.05;37.98;97919.22;4476754;32;20100;-69
2022/08/15 09:14:34;;;;;;;7.10;5.07;;;;;;;31.25;38.12;97912.72;4480755;31;20224;-69
2022/08/15 09:17:24;;;;;;;8.90;5.03;;;;;;;31.39;35.17;97918.19;4469472;32;125320;-69
2022/08/15 09:20:05;;;;;;;6.37;5.30;;;;;;;31.28;35.96;97920.25;4478229;32;20100;-69
2022/08/15 09:22:45;;;;;;;8.43;5.28;;;;;;;31.27;36.06;97917.84;4450589;32;20127;-69
2022/08/15 09:25:14;;;;;;;10.05;5.30;;;;;;;31.40;36.60;97916.28;4457991;32;20103;-69
2022/08/15 09:27:50;;;;;;;8.52;5.22;;;;;;;31.49;37.01;97915.31;4466850;32;20637;-69
2022/08/15 09:30:26;;;;;;;10.63;4.80;;;;;;;31.50;35.23;97911.50;4461432;32;20096;-69
2022/08/15 09:33:40;;;;;;;7.65;4.87;;;;;;;31.52;35.37;97908.50;4466411;32;20675;-69
2022/08/15 09:36:46;;;;;;;10.85;5.07;;;;;;;31.55;34.85;97909.84;4469101;32;20131;-69
2022/08/15 09:39:35;;;;;;;7.35;5.00;;;;;;;31.60;34.68;97907.03;4404122;32;20137;-69
2022/08/15 09:42:23;;;;;;;8.30;5.68;;;;;;;31.81;34.87;97899.38;4402812;32;20135;-69
2022/08/15 09:45:14;;;;;;;5.35;4.35;;;;;;;31.60;35.23;97899.75;4403276;32;20133;-69
2022/08/15 09:47:46;;;;;;;4.45;3.80;;;;;;;31.52;33.75;97899.56;4402038;32;20859;-69
2022/08/15 09:50:25;;;;;;;;;;;;;;;31.40;31.80;97900.03;4404075;32;20153;-69
2022/08/15 09:53:18;;;;;;;6.18;4.87;;;;;;;31.52;33.72;97892.25;4405576;32;20351;-70
2022/08/15 09:55:47;;;;;;;;;;;;;;;31.44;32.50;97903.75;4404985;32;20143;-71
2022/08/15 09:58:26;;;;;;;5.05;4.50;;;;;;;31.15;33.34;97893.91;4404368;32;20015;-72
2022/08/15 10:01:19;;;;;;;6.15;4.12;;;;;;;31.52;33.09;97884.13;4404754;32;20695;-69
2022/08/15 10:04:02;;;;;;;6.63;4.53;;;;;;;31.27;33.20;97888.06;4392327;32;20577;-69
2022/08/15 10:06:56;;;;;;;5.32;4.50;;;;;;;31.55;33.29;97880.84;4404256;32;20106;-69
2022/08/15 10:09:27;;;;;;;6.95;4.37;;;;;;;31.85;33.14;97886.84;4403599;32;20145;-69
2022/08/15 10:12:00;;;;;;;4.87;4.35;;;;;;;32.20;32.71;97873.75;4404491;32;20478;-69
2022/08/15 10:14:42;;;;;;;6.07;4.03;;;;;;;31.78;32.43;97881.81;4466898;32;20459;-69
2022/08/15 10:17:29;;;;;;;4.72;4.03;;;;;;;31.72;31.11;97877.59;4468630;32;20490;-69
2022/08/15 10:19:56;;;;;;;6.22;4.18;;;;;;;31.81;30.84;97873.09;4467071;32;20458;-70
2022/08/15 10:22:52;;;;;;;8.98;4.47;;;;;;;32.10;31.70;97869.34;4456317;32;20704;-70
2022/08/15 10:25:36;;;;;;;7.95;4.05;;;;;;;32.27;30.06;97863.31;4470716;32;20161;-69
2022/08/15 10:28:12;;;;;;;5.03;4.53;;;;;;;32.24;29.71;97858.50;4462773;32;20108;-70
2022/08/15 10:31:02;;;;;;;5.95;4.00;;;;;;;32.43;30.72;97863.81;4476786;32;20092;-69
2022/08/15 10:33:36;;;;;;;5.62;3.62;;;;;;;32.66;30.05;97863.88;4479547;31;20536;-70
2022/08/15 10:36:13;;;;;;;6.07;3.47;;;;;;;32.80;28.19;97861.97;4483426;31;20077;-70
2022/08/15 10:39:08;;;;;;;5.47;4.50;;;;;;;32.75;29.08;97848.53;4481838;31;20864;-70
2022/08/15 10:41:36;;;;;;;6.20;4.35;;;;;;;32.73;29.83;97856.12;4483831;31;20159;-70
2022/08/15 10:44:10;;;;;;;4.90;4.40;;;;;;;32.72;29.39;97849.13;4479572;31;20431;-70
2022/08/15 10:46:57;;;;;;;4.53;4.10;;;;;;;32.71;30.07;97856.44;4477267;32;20134;-71
2022/08/15 10:49:29;;;;;;;4.25;3.85;;;;;;;32.99;29.20;97844.72;4477162;31;20100;-70
2022/08/15 10:52:18;;;;;;;5.55;4.25;;;;;;;32.78;29.08;97838.94;4482776;32;20108;-70
2022/08/15 10:55:20;;;;;;;6.50;4.60;;;;;;;32.97;30.33;97836.87;4475804;31;20152;-70
2022/08/15 10:58:09;;;;;;;5.75;4.20;;;;;;;33.25;31.49;97848.47;4480106;32;20115;-70
2022/08/15 11:00:50;;;;;;;5.45;4.40;;;;;;;33.37;30.10;97834.31;4480924;31;20142;-70
2022/08/15 11:03:32;;;;;;;6.05;4.62;;;;;;;33.02;30.94;97833.25;4460020;32;20112;-69
2022/08/15 11:06:21;;;;;;;5.60;4.60;;;;;;;32.92;30.07;97837.00;4472938;32;20146;-70
2022/08/15 11:09:18;;;;;;;4.82;3.50;;;;;;;32.90;30.24;97836.50;4481663;32;20587;-70
2022/08/15 11:11:55;;;;;;;5.65;4.45;;;;;;;32.91;28.49;97838.09;4474687;31;20085;-70
2022/08/15 11:14:29;;;;;;;4.30;3.87;;;;;;;32.56;28.71;97843.19;4481468;31;20137;-71
2022/08/15 11:16:58;;;;;;;9.75;4.50;;;;;;;32.42;29.14;97828.87;4481348;31;20588;-70
2022/08/15 11:19:36;;;;;;;6.55;4.07;;;;;;;32.93;30.37;97825.06;4480433;32;20108;-69
2022/08/15 11:22:36;;;;;;;6.37;4.10;;;;;;;32.77;28.72;97813.75;4480261;32;20164;-69
2022/08/15 11:25:14;;;;;;;5.93;3.33;;;;;;;32.76;29.27;97812.13;4481216;31;20118;-70
2022/08/15 11:27:44;;;;;;;3.60;3.30;;;;;;;33.09;26.90;97811.91;4481164;32;20096;-69
2022/08/15 11:30:30;;;;;;;3.58;3.25;;;;;;;33.45;26.18;97812.94;4465405;32;20382;-69
2022/08/15 11:33:17;;;;;;;4.77;3.20;;;;;;;33.39;26.55;97821.22;4465690;32;20537;-69
2022/08/15 11:35:50;;;;;;;5.90;3.60;;;;;;;33.24;26.70;97829.78;4465618;32;20169;-69
2022/08/15 11:38:17;;;;;;;4.07;3.67;;;;;;;32.81;27.30;97822.88;4476521;32;20481;-70
2022/08/15 11:40:52;;;;;;;3.62;3.17;;;;;;;32.75;27.56;97818.69;4481017;31;20140;-70
2022/08/15 11:43:22;;;;;;;5.70;3.70;;;;;;;32.59;27.07;97830.94;4479808;32;20492;-69
2022/08/15 11:45:50;;;;;;;4.70;3.60;;;;;;;32.45;27.77;97825.56;4481918;32;20097;-70
2022/08/15 11:48:27;;;;;;;7.20;3.25;;;;;;;32.51;27.39;97829.78;4482096;32;20156;-70
2022/08/15 11:51:06;;;;;;;4.50;3.70;;;;;;;32.74;28.00;97811.66;4483393;31;20114;-70
2022/08/15 11:53:59;;;;;;;6.68;3.62;;;;;;;32.99;27.40;97812.97;4483195;31;20100;-70
2022/08/15 11:56:43;;;;;;;7.90;3.80;;;;;;;33.42;26.65;97807.03;4418594;32;20121;-70
2022/08/15 11:59:23;;;;;;;4.30;3.90;;;;;;;33.83;27.69;97810.59;4418833;32;20110;-70
2022/08/15 12:02:02;;;;;;;6.32;3.78;;;;;;;33.66;25.89;97799.63;4418483;32;20128;-70
2022/08/15 12:04:33;;;;;;;6.22;3.72;;;;;;;33.76;26.24;97786.62;4418768;32;20195;-70
2022/08/15 12:07:27;;;;;;;3.95;3.55;;;;;;;33.86;25.98;97798.31;4406319;32;20148;-70
2022/08/15 12:09:59;;;;;;;5.90;3.80;;;;;;;33.97;26.50;97791.47;4403009;32;20110;-69
2022/08/15 12:12:42;;;;;;;4.30;3.90;;;;;;;34.45;26.61;97790.63;4403192;32;20102;-70
2022/08/15 12:15:21;;;;;;;4.32;3.50;;;;;;;34.95;25.56;97781.22;4390627;32;20114;-70
2022/08/15 12:18:05;;;;;;;3.35;3.05;;;;;;;35.19;24.63;97779.91;4390078;32;20315;-69
2022/08/15 12:20:47;;;;;;;4.32;3.50;;;;;;;35.15;23.67;97777.00;4402741;32;20145;-69
2022/08/15 12:23:28;;;;;;;6.60;3.47;;;;;;;35.59;24.47;97773.41;4403431;32;20106;-69
2022/08/15 12:26:13;;;;;;;5.20;3.58;;;;;;;35.44;22.72;97780.97;4408967;32;20136;-69
2022/08/15 12:29:00;;;;;;;4.90;3.30;;;;;;;35.11;22.84;97778.81;4415352;32;20150;-70
2022/08/15 12:31:34;;;;;;;4.05;3.62;;;;;;;34.90;23.93;97766.97;4418462;32;20117;-71
2022/08/15 12:34:12;;;;;;;4.35;3.50;;;;;;;35.29;23.25;97774.13;4450146;32;20127;-71